Latest Weather Observations for Wilcannia Airport

IDN60801

Issued at 3:32 pm EST Tuesday 31 May 2016 (issued every 30 minutes, with the page automatically refreshed every 10 minutes)

About weather observations | Map of weather stations | Latest weather observations for NSW | Other Formats
Station Details ID: 046012 Name: WILCANNIA AERODROME AWS Lat: -31.52 Lon: 143.38 Height: 94.3 m
Data from the previous 72 hours. | See also: Recent months at Wilcannia Airport
Date/Time
EST
Temp
°C
App
Temp
°C
Dew
Point
Rel
Hum
%
Delta-T
°C
Wind Press
QNH
hPa
Press
MSL
hPa
Rain
since 9 am
mm
Dir
 
Spd
km/h
Gust
km/h
Spd
kts
Gust
kts
31/03:30pm 13.8 11.1 7.3 65 3.2 S 11 15 6 8 1024.4 1024.3 0.2
31/03:00pm 14.1 11.2 6.7 61 3.6 SSE 11 13 6 7 1024.4 1024.3 0.2
31/02:30pm 14.5 12.0 6.6 59 3.8 SE 9 11 5 6 1024.6 1024.5 0.2
31/02:00pm 14.5 12.5 6.1 57 4.0 E 6 9 3 5 1024.9 1024.8 0.2
31/01:30pm 14.6 12.3 5.9 56 4.2 NE 7 9 4 5 1025.3 1025.2 0.2
31/01:00pm 14.5 11.8 5.8 56 4.1 NE 9 13 5 7 1025.6 1025.5 0.2
31/12:30pm 13.9 10.5 6.0 59 3.8 NE 13 17 7 9 1025.9 1025.8 0.2
31/12:00pm 13.3 9.1 5.9 61 3.5 NE 17 22 9 12 1026.1 1026.0 0.2
31/11:30am 13.3 9.1 5.9 61 3.5 NE 17 20 9 11 1026.7 1026.6 0.0
31/11:00am 13.2 9.5 6.3 63 3.3 NE 15 20 8 11 1027.1 1027.1 0.0
31/10:30am 12.6 9.3 6.2 65 3.0 NNE 13 19 7 10 1027.2 1027.2 0.0
31/10:00am 11.3 8.3 6.2 71 2.4 NNE 11 15 6 8 1027.5 1027.5 0.0
31/09:30am 10.6 6.9 6.2 74 2.1 NE 15 20 8 11 1026.9 1026.9 0.0
31/09:00am 10.3 6.1 5.9 74 2.0 ENE 17 22 9 12 1026.9 1026.9 0.0
31/08:30am 9.4 6.1 6.3 81 1.4 ENE 13 19 7 10 1026.6 1026.5 0.0
31/08:00am 8.0 4.2 5.6 85 1.1 ENE 15 20 8 11 1026.3 1026.2 0.0
31/07:30am 7.6 4.1 5.6 87 0.9 E 13 15 7 8 1026.3 1026.2 0.0
31/07:00am 7.5 4.0 5.5 87 0.9 E 13 17 7 9 1026.1 1026.0 0.0
31/06:30am 7.8 4.3 5.6 86 1.0 E 13 19 7 10 1026.0 1025.9 0.0
31/06:00am 7.7 5.0 5.8 88 0.9 E 9 11 5 6 1026.0 1025.9 0.0
31/05:30am 7.8 4.8 5.8 87 0.9 ENE 11 13 6 7 1025.6 1025.5 0.0
31/05:00am 7.6 4.9 5.7 88 0.9 E 9 13 5 7 1025.6 1025.5 0.0
31/04:30am 7.6 4.9 5.6 87 0.9 ENE 9 13 5 7 1025.6 1025.5 0.0
31/04:00am 8.0 4.6 5.8 86 1.0 ENE 13 17 7 9 1025.3 1025.2 0.0
31/03:30am 7.5 4.0 5.6 88 0.9 ENE 13 15 7 8 1025.4 1025.3 0.0
31/03:00am 7.5 4.0 5.6 88 0.8 ENE 13 15 7 8 1025.5 1025.4 0.0
31/02:30am 7.5 4.0 5.6 88 0.9 ENE 13 15 7 8 1025.2 1025.1 0.0
31/02:00am 7.1 3.9 5.3 88 0.8 ENE 11 13 6 7 1025.1 1025.0 0.0
31/01:30am 7.4 4.0 5.7 89 0.8 ENE 13 15 7 8 1024.9 1024.8 0.0
31/01:00am 7.1 3.6 5.3 88 0.8 E 13 13 7 7 1024.9 1024.8 0.0
31/12:30am 7.6 4.1 5.4 86 1.0 ENE 13 15 7 8 1024.9 1024.8 0.0
31/12:00am 8.4 5.0 5.7 83 1.2 ENE 13 15 7 8 1024.9 1024.8 0.0
 
Date/Time
EST
Temp
°C
App
Temp
°C
Dew
Point
Rel
Hum
%
Delta-T
°C
Wind Press
QNH
hPa
Press
MSL
hPa
Rain
since 9 am
mm
Dir
 
Spd
km/h
Gust
km/h
Spd
kts
Gust
kts
30/11:30pm 7.7 4.3 5.8 88 0.9 E 13 15 7 8 1024.6 1024.5 0.0
30/11:00pm 7.3 3.7 5.0 85 1.0 E 13 13 7 7 1024.7 1024.6 0.0
30/10:30pm 8.5 5.1 6.0 84 1.1 E 13 13 7 7 1024.9 1024.8 0.0
30/10:00pm 9.3 6.4 6.4 82 1.3 E 11 15 6 8 1024.8 1024.7 0.0
30/09:30pm 9.9 7.0 6.6 80 1.5 E 11 15 6 8 1024.7 1024.6 0.0
30/09:00pm 9.8 6.6 6.7 81 1.4 E 13 13 7 7 1024.8 1024.7 0.0
30/08:30pm 10.4 7.3 7.1 80 1.6 E 13 15 7 8 1024.7 1024.6 0.0
30/08:00pm 10.8 7.7 7.1 78 1.8 E 13 13 7 7 1024.7 1024.6 0.0
30/07:30pm 11.5 8.0 7.4 76 2.0 E 15 17 8 9 1024.4 1024.3 0.0
30/07:00pm 11.5 8.5 7.6 77 1.9 E 13 15 7 8 1024.3 1024.2 0.0
30/06:30pm 11.5 8.4 7.2 75 2.1 E 13 13 7 7 1024.2 1024.1 0.0
30/06:00pm 12.5 9.4 7.4 71 2.5 E 13 15 7 8 1023.7 1023.7 0.0
30/05:30pm 13.8 10.7 7.3 65 3.2 E 13 15 7 8 1023.3 1023.3 0.0
30/05:00pm 15.7 12.9 7.0 56 4.3 ENE 11 13 6 7 1023.0 1023.0 0.0
30/04:30pm 16.8 13.9 6.6 51 5.0 ENE 11 15 6 8 1022.7 1022.7 0.0
30/04:00pm 16.6 13.2 6.1 50 5.1 NE 13 19 7 10 1022.6 1022.6 0.0
30/03:30pm 17.0 13.7 6.5 50 5.2 ENE 13 19 7 10 1022.5 1022.5 0.0
30/03:00pm 17.7 14.2 7.4 51 5.2 NNE 15 20 8 11 1022.6 1022.6 0.0
30/02:30pm 17.8 14.3 7.2 50 5.3 NE 15 20 8 11 1022.6 1022.6 0.0
30/02:00pm 17.4 13.8 6.6 49 5.3 NE 15 24 8 13 1022.7 1022.7 0.0
30/01:30pm 17.5 14.1 7.5 52 5.1 NE 15 24 8 13 1023.1 1023.1 0.0
30/01:00pm 17.1 13.2 7.2 52 4.9 NNE 17 22 9 12 1023.6 1023.6 0.0
30/12:30pm 16.8 12.3 6.9 52 4.9 NE 20 28 11 15 1023.8 1023.8 0.0
30/12:00pm 16.9 13.0 7.3 53 4.8 NE 17 22 9 12 1024.4 1024.3 0.0
30/11:30am 16.2 12.1 7.7 57 4.3 NNE 19 24 10 13 1024.5 1024.4 0.0
30/11:00am 15.5 11.0 7.0 57 4.2 NE 20 28 11 15 1024.9 1024.8 0.0
30/10:30am 14.7 10.2 7.0 60 3.8 NE 20 28 11 15 1025.0 1024.9 0.0
30/10:00am 13.8 9.3 7.1 64 3.3 NE 20 26 11 14 1025.2 1025.1 0.0
30/09:30am 12.5 8.7 7.6 72 2.4 NE 17 24 9 13 1025.0 1024.9 0.0
30/09:00am 11.0 7.5 7.3 78 1.8 NE 15 19 8 10 1024.6 1024.5 0.0
30/08:30am 9.8 7.3 8.1 89 0.8 ENE 11 15 6 8 1024.4 1024.3 0.0
30/08:00am 8.4 5.8 7.8 96 0.3 ENE 11 13 6 7 1024.2 1024.1 0.0
30/07:30am 6.4 3.3 5.7 95 0.3 ENE 11 13 6 7 1023.7 1023.7 0.0
30/07:00am 6.2 3.1 5.5 95 0.3 ENE 11 13 6 7 1023.4 1023.4 0.0
30/06:30am 4.8 2.1 3.8 93 0.4 E 7 9 4 5 1023.2 1023.2 0.0
30/06:00am 4.7 3.2 3.2 90 0.6 CALM 0 0 0 0 1022.8 1022.8 0.0
30/05:30am 5.9 3.6 4.7 92 0.5 SSE 6 7 3 4 1022.6 1022.6 0.0
30/05:00am 6.6 4.5 5.6 93 0.4 ESE 6 7 3 4 1022.3 1022.3 0.0
30/04:30am 7.3 6.4 6.1 92 0.5 CALM 0 0 0 0 1022.1 1022.1 0.0
30/04:00am 7.9 5.7 6.4 90 0.7 NE 7 9 4 5 1021.9 1021.9 0.0
30/03:30am 8.6 5.8 7.1 90 0.7 NE 11 13 6 7 1021.8 1021.8 0.0
30/03:00am 9.7 7.1 7.8 88 0.9 ENE 11 13 6 7 1021.9 1021.9 0.0
30/02:30am 10.2 7.7 8.3 88 0.9 NE 11 11 6 6 1022.0 1022.0 0.0
30/02:00am 10.3 7.4 8.2 87 1.0 NE 13 13 7 7 1021.9 1021.9 0.0
30/01:30am 10.0 7.4 7.9 87 1.0 ENE 11 11 6 6 1021.8 1021.8 0.0
30/01:00am 10.3 7.7 7.9 85 1.2 ENE 11 11 6 6 1021.8 1021.8 0.0
30/12:30am 10.1 7.1 7.9 86 1.1 E 13 13 7 7 1021.8 1021.8 0.0
30/12:00am 10.0 7.0 7.6 85 1.1 E 13 15 7 8 1021.8 1021.8 0.0
 
Date/Time
EST
Temp
°C
App
Temp
°C
Dew
Point
Rel
Hum
%
Delta-T
°C
Wind Press
QNH
hPa
Press
MSL
hPa
Rain
since 9 am
mm
Dir
 
Spd
km/h
Gust
km/h
Spd
kts
Gust
kts
29/11:30pm 9.8 6.8 7.6 86 1.1 E 13 13 7 7 1022.0 1022.0 0.0
29/11:00pm 10.0 7.3 7.4 84 1.2 E 11 13 6 7 1022.2 1022.2 0.0
29/10:30pm 10.6 8.0 7.8 83 1.4 E 11 13 6 7 1022.1 1022.1 0.0
29/10:00pm 10.9 8.8 8.1 83 1.4 E 9 11 5 6 1022.1 1022.1 0.0
29/09:30pm 11.2 9.1 8.2 82 1.5 ENE 9 11 5 6 1022.2 1022.2 0.0
29/09:00pm 11.9 9.8 8.4 79 1.7 ENE 9 11 5 6 1022.2 1022.2 0.0
29/08:30pm 12.5 10.0 8.0 74 2.2 ENE 11 15 6 8 1022.0 1022.0 0.0
29/08:00pm 13.0 10.1 8.1 72 2.4 NE 13 17 7 9 1021.9 1021.9 0.0
29/07:30pm 12.4 10.5 9.2 81 1.6 NE 9 11 5 6 1021.5 1021.5 0.0
29/07:00pm 12.2 10.7 9.2 82 1.5 ENE 7 9 4 5 1021.2 1021.2 0.0
29/06:30pm 12.4 10.5 8.9 79 1.8 ENE 9 11 5 6 1020.9 1020.9 0.0
29/06:00pm 12.4 10.5 8.9 79 1.8 E 9 9 5 5 1020.6 1020.6 0.0
29/05:30pm 12.7 11.1 8.6 76 2.1 ENE 7 9 4 5 1020.5 1020.5 0.0
29/05:00pm 13.5 11.0 8.4 71 2.5 NE 11 13 6 7 1020.2 1020.2 0.0
29/04:30pm 14.5 11.5 7.5 63 3.5 E 13 17 7 9 1020.2 1020.2 0.0
29/04:00pm 15.3 13.3 8.8 65 3.3 NE 9 13 5 7 1020.4 1020.4 0.0
29/03:30pm 14.6 12.5 8.3 66 3.2 ENE 9 11 5 6 1020.3 1020.3 0.0
29/03:00pm 14.5 13.1 8.7 68 2.9 ENE 6 11 3 6 1020.3 1020.3 0.0
29/02:30pm 14.3 12.9 8.7 69 2.8 NE 6 9 3 5 1020.5 1020.5 0.0
29/02:00pm 14.3 12.9 8.7 69 2.8 NE 6 7 3 4 1020.4 1020.4 0.0
29/01:30pm 14.2 13.2 9.0 71 2.7 ENE 4 9 2 5 1020.4 1020.4 0.0
29/01:00pm 13.7 13.5 9.2 74 2.3 CALM 0 7 0 4 1020.7 1020.7 0.0
29/12:30pm 13.5 12.1 9.0 74 2.3 NE 6 9 3 5 1021.1 1021.1 0.0
29/12:00pm 13.6 11.8 9.6 77 2.0 ENE 9 11 5 6 1021.3 1021.3 0.0
29/11:30am 13.0 11.4 8.9 76 2.1 ENE 7 11 4 6 1021.7 1021.7 0.0
29/11:00am 12.8 11.0 9.4 80 1.7 ESE 9 13 5 7 1021.8 1021.8 0.0
29/10:30am 12.3 10.8 9.1 81 1.6 SE 7 9 4 5 1022.1 1022.1 0.0
29/10:00am 11.8 10.4 9.4 85 1.2 SE 7 9 4 5 1021.9 1021.9 0.0
29/09:30am 11.4 9.6 9.3 87 1.1 SE 9 11 5 6 1021.7 1021.7 0.0
29/09:00am 10.9 9.4 9.2 89 0.8 SSE 7 9 4 5 1021.5 1021.5 0.2
29/08:30am 10.4 9.1 9.2 92 0.6 SW 6 7 3 4 1021.2 1021.2 0.2
29/08:00am 10.0 8.5 9.1 94 0.4 SSW 7 9 4 5 1020.8 1020.8 0.2
29/07:30am 9.7 8.1 8.8 94 0.4 SSW 7 7 4 4 1020.6 1020.6 0.2
29/07:00am 9.6 8.1 8.5 93 0.5 SW 6 7 3 4 1020.1 1020.1 0.2
29/06:30am 9.8 8.2 8.7 93 0.5 SW 7 9 4 5 1019.9 1019.9 0.2
29/06:00am 9.7 8.1 8.8 94 0.4 WSW 7 9 4 5 1019.8 1019.8 0.2
29/05:30am 9.4 9.0 8.3 93 0.5 CALM 0 7 0 4 1019.2 1019.2 0.2
29/05:00am 9.5 9.1 8.3 92 0.6 CALM 0 2 0 1 1018.9 1018.9 0.2
29/04:30am 9.8 8.2 8.6 92 0.6 S 7 9 4 5 1018.9 1018.9 0.2
29/04:00am 10.1 8.1 8.7 91 0.7 S 9 9 5 5 1018.7 1018.7 0.2
29/03:30am 10.0 8.5 8.6 91 0.7 SSE 6 7 3 4 1018.6 1018.6 0.2
29/03:00am 10.1 8.5 8.9 92 0.6 S 7 9 4 5 1018.6 1018.6 0.2
29/02:30am 10.3 8.8 9.1 92 0.6 S 7 9 4 5 1018.9 1018.9 0.2
29/02:00am 10.3 8.7 8.9 91 0.7 S 7 7 4 4 1018.9 1018.9 0.2
29/01:30am 10.4 9.1 9.2 92 0.6 S 6 7 3 4 1019.1 1019.1 0.2
29/01:00am 10.1 8.7 8.9 92 0.6 S 6 7 3 4 1019.2 1019.2 0.2
29/12:30am 10.0 8.5 8.6 91 0.7 S 6 7 3 4 1019.2 1019.2 0.2
29/12:00am 9.6 7.5 8.2 91 0.7 S 9 9 5 5 1019.1 1019.1 0.2
 
Date/Time
EST
Temp
°C
App
Temp
°C
Dew
Point
Rel
Hum
%
Delta-T
°C
Wind Press
QNH
hPa
Press
MSL
hPa
Rain
since 9 am
mm
Dir
 
Spd
km/h
Gust
km/h
Spd
kts
Gust
kts
28/11:30pm 9.6 7.5 8.4 92 0.6 SSW 9 9 5 5 1019.4 1019.4 0.2
28/11:00pm 8.7 6.3 7.0 89 0.8 SSW 9 9 5 5 1019.4 1019.4 0.2
28/10:30pm 9.4 7.5 7.5 88 0.9 S 7 9 4 5 1019.2 1019.2 0.2
28/10:00pm 9.2 7.3 7.6 90 0.8 S 7 9 4 5 1018.9 1018.9 0.2
28/09:30pm 8.8 6.7 6.6 86 1.0 S 7 9 4 5 1018.5 1018.5 0.2
28/09:00pm 9.7 7.9 7.0 83 1.3 S 6 7 3 4 1018.4 1018.4 0.2
28/08:30pm 10.9 9.1 8.0 82 1.4 S 7 9 4 5 1018.2 1018.2 0.2
28/08:00pm 11.5 9.7 8.0 79 1.7 S 7 9 4 5 1017.9 1017.9 0.2
28/07:30pm 12.0 9.9 8.3 78 1.8 S 9 9 5 5 1017.5 1017.4 0.2
28/07:00pm 12.6 10.9 8.5 76 2.0 S 7 9 4 5 1017.0 1016.9 0.2
28/06:30pm 12.7 10.5 8.0 73 2.3 SW 9 11 5 6 1016.7 1016.6 0.2
28/06:00pm 13.6 11.4 7.8 68 2.9 SW 9 13 5 7 1016.3 1016.2 0.2
28/05:30pm 14.2 12.0 7.7 65 3.2 WSW 9 13 5 7 1016.1 1016.0 0.2
28/05:00pm 15.3 11.4 7.1 58 4.0 WSW 17 24 9 13 1015.8 1015.7 0.2
28/04:30pm 16.4 12.1 7.1 54 4.6 WSW 19 28 10 15 1015.5 1015.4 0.2
28/04:00pm 15.5 11.0 7.0 57 4.2 SW 20 30 11 16 1015.4 1015.3 0.2

Other Formats:

Comma delimited format used in spreadsheet applications
http://www.bom.gov.au/fwo/IDN60801/IDN60801.95695.axf

JavaScript Object Notation format (JSON) in row-major order
http://www.bom.gov.au/fwo/IDN60801/IDN60801.95695.json